Time;durP1;ratioP1;P1;durP2;ratioP2;P2;SDS_P1;SDS_P2;PMS_P1;PMS_P2;Temp;Humidity;BMP_temperature;BMP_pressure;BME280_temperature;BME280_humidity;BME280_pressure;Samples;Min_cycle;Max_cycle;Signal;HPM_P1;HPM_P2
2020/12/10 00:02:08;;;;;;;33.55;14.40;;;;;;;-5.10;66.47;100438.36;1661340;85;21350;-60
2020/12/10 00:04:36;;;;;;;33.33;15.43;;;;;;;-5.12;66.46;100436.85;1654463;87;21217;-60
2020/12/10 00:07:04;;;;;;;33.25;16.15;;;;;;;-5.13;66.39;100434.69;1644804;86;21235;-61
2020/12/10 00:09:33;;;;;;;32.17;15.40;;;;;;;-5.17;66.44;100437.30;1709972;83;21603;-60
2020/12/10 00:12:02;;;;;;;26.87;13.50;;;;;;;-5.24;66.53;100426.97;1716735;83;21165;-61
2020/12/10 00:14:29;;;;;;;31.37;14.60;;;;;;;-5.29;66.68;100429.27;1705988;83;21586;-61
2020/12/10 00:16:57;;;;;;;26.17;13.50;;;;;;;-5.32;66.71;100428.25;1708720;83;21177;-61
2020/12/10 00:19:25;;;;;;;40.55;18.60;;;;;;;-5.35;66.82;100430.37;1690201;83;21170;-61
2020/12/10 00:21:55;;;;;;;27.87;13.25;;;;;;;-5.37;66.80;100423.05;1637127;85;21149;-61
2020/12/10 00:24:23;;;;;;;31.25;16.48;;;;;;;-5.39;66.88;100409.94;1704461;83;21597;-61
2020/12/10 00:26:51;;;;;;;27.77;13.43;;;;;;;-5.45;67.07;100416.33;1718488;83;21646;-61
2020/12/10 00:29:19;;;;;;;24.50;12.75;;;;;;;-5.48;67.23;100408.68;1689161;83;21651;-61
2020/12/10 00:31:46;;;;;;;26.52;12.88;;;;;;;-5.47;67.19;100414.34;1698200;83;21180;-61
2020/12/10 00:34:14;;;;;;;26.48;13.53;;;;;;;-5.51;67.28;100421.77;1697748;83;21561;-60
2020/12/10 00:36:42;;;;;;;25.10;12.43;;;;;;;-5.53;67.32;100417.12;1690799;83;21209;-61
2020/12/10 00:39:10;;;;;;;24.18;11.83;;;;;;;-5.55;67.43;100413.77;1687660;83;21582;-61
2020/12/10 00:41:38;;;;;;;27.20;13.38;;;;;;;-5.57;67.56;100416.59;1699970;83;21193;-61
2020/12/10 00:44:06;;;;;;;31.52;15.35;;;;;;;-5.61;67.57;100414.38;1717455;82;21149;-61
2020/12/10 00:46:34;;;;;;;32.90;16.32;;;;;;;-5.65;67.71;100411.69;1715587;83;21165;-60
2020/12/10 00:49:02;;;;;;;31.82;14.60;;;;;;;-5.70;67.93;100405.99;1714675;83;21133;-61
2020/12/10 00:51:29;;;;;;;28.00;13.53;;;;;;;-5.69;67.86;100407.66;1687048;85;21201;-60
2020/12/10 00:53:58;;;;;;;30.68;15.72;;;;;;;-5.70;67.93;100404.66;1708443;83;21299;-60
2020/12/10 00:56:25;;;;;;;25.10;12.47;;;;;;;-5.75;68.05;100402.48;1674421;83;21184;-60
2020/12/10 00:58:53;;;;;;;29.87;12.88;;;;;;;-5.75;68.02;100405.63;1671191;84;21190;-60
2020/12/10 01:01:21;;;;;;;25.30;12.10;;;;;;;-5.76;68.13;100405.28;1701761;83;21198;-61
2020/12/10 01:03:49;;;;;;;34.10;14.07;;;;;;;-5.82;68.26;100408.05;1715029;83;21577;-60
2020/12/10 01:06:17;;;;;;;33.33;14.28;;;;;;;-5.83;68.31;100406.87;1717522;83;21197;-61
2020/12/10 01:08:45;;;;;;;28.20;12.65;;;;;;;-5.82;68.31;100401.42;1676219;85;21137;-61
2020/12/10 01:11:13;;;;;;;24.40;11.75;;;;;;;-5.84;68.31;100396.75;1646576;85;21129;-61
2020/12/10 01:13:40;;;;;;;31.30;13.00;;;;;;;-5.84;68.34;100398.08;1695124;83;21562;-61
2020/12/10 01:16:09;;;;;;;26.40;11.70;;;;;;;-5.84;68.35;100390.12;1722471;83;21709;-61
2020/12/10 01:18:37;;;;;;;26.82;11.33;;;;;;;-5.86;68.42;100389.97;1738514;82;21670;-61
2020/12/10 01:21:04;;;;;;;24.82;11.80;;;;;;;-5.93;68.64;100396.86;1740390;82;21175;-61
2020/12/10 01:23:33;;;;;;;24.20;10.98;;;;;;;-5.96;68.80;100391.38;1722985;82;21157;-60
2020/12/10 01:26:01;;;;;;;26.85;12.23;;;;;;;-5.98;68.88;100390.67;1685191;83;21206;-60
2020/12/10 01:28:29;;;;;;;24.05;10.75;;;;;;;-6.03;69.02;100387.66;1715300;82;21149;-61
2020/12/10 01:30:57;;;;;;;20.43;10.32;;;;;;;-6.06;69.24;100390.61;1666925;85;21173;-61
2020/12/10 01:33:25;;;;;;;24.72;10.03;;;;;;;-6.01;69.12;100392.30;1693988;83;21173;-60
2020/12/10 01:35:53;;;;;;;20.72;9.80;;;;;;;-6.01;69.19;100394.11;1717333;82;21161;-60
2020/12/10 01:38:20;;;;;;;23.22;9.85;;;;;;;-6.00;69.20;100391.81;1674964;83;21199;-60
2020/12/10 01:40:51;;;;;;;19.37;9.43;;;;;;;-6.03;69.21;100389.47;1696231;83;21899;-61
2020/12/10 01:43:19;;;;;;;22.67;10.85;;;;;;;-6.02;69.19;100392.47;1712713;83;21589;-60
2020/12/10 01:45:47;;;;;;;19.73;9.95;;;;;;;-6.06;69.35;100391.41;1669803;83;21610;-60
2020/12/10 01:48:15;;;;;;;25.05;10.68;;;;;;;-6.06;69.39;100393.27;1702519;83;21190;-61
2020/12/10 01:50:43;;;;;;;19.07;9.40;;;;;;;-6.05;69.39;100393.58;1722480;82;21174;-61
2020/12/10 01:53:11;;;;;;;21.70;10.90;;;;;;;-6.02;69.29;100393.80;1684546;83;21763;-61
2020/12/10 01:55:39;;;;;;;20.37;8.95;;;;;;;-6.04;69.35;100401.88;1694228;83;21596;-60
2020/12/10 01:58:07;;;;;;;20.77;11.20;;;;;;;-6.10;69.46;100404.66;1674117;83;21136;-60
2020/12/10 02:00:35;;;;;;;23.80;10.80;;;;;;;-6.10;69.39;100396.70;1696369;83;21601;-61
2020/12/10 02:03:03;;;;;;;23.10;11.45;;;;;;;-6.14;69.56;100394.00;1715568;83;21511;-61
2020/12/10 02:05:31;;;;;;;25.52;10.68;;;;;;;-6.10;69.49;100389.23;1705414;83;21157;-61
2020/12/10 02:07:59;;;;;;;24.50;11.43;;;;;;;-6.08;69.34;100381.95;1705048;82;21139;-60
2020/12/10 02:10:26;;;;;;;24.35;10.70;;;;;;;-6.14;69.44;100379.42;1714871;84;21203;-61
2020/12/10 02:12:56;;;;;;;23.55;11.28;;;;;;;-6.12;69.33;100384.55;1711765;84;21126;-61
2020/12/10 02:15:23;;;;;;;23.73;10.50;;;;;;;-6.13;69.38;100376.29;1687765;84;21605;-61
2020/12/10 02:17:54;;;;;;;23.32;10.43;;;;;;;-6.12;69.34;100373.95;1712509;84;21661;-61
2020/12/10 02:20:23;;;;;;;22.52;10.55;;;;;;;-6.11;69.23;100361.89;1666959;84;21166;-61
2020/12/10 02:23:01;;;;;;;21.48;9.73;;;;;;;-6.12;69.25;100363.36;1687893;84;21185;-61
2020/12/10 02:25:30;;;;;;;21.60;10.20;;;;;;;-6.13;69.22;100360.39;1654029;86;21733;-61
2020/12/10 02:28:04;;;;;;;18.02;9.33;;;;;;;-6.13;69.18;100355.09;1694248;84;21134;-60
2020/12/10 02:30:31;;;;;;;22.62;10.18;;;;;;;-6.19;69.25;100347.22;1683099;84;21162;-60
2020/12/10 02:33:01;;;;;;;21.20;10.08;;;;;;;-6.27;69.59;100352.95;1661969;84;21169;-60
2020/12/10 02:35:29;;;;;;;24.05;10.58;;;;;;;-6.25;69.60;100339.05;1688686;84;21189;-61
2020/12/10 02:37:58;;;;;;;20.65;10.20;;;;;;;-6.22;69.49;100337.41;1684975;84;21153;-60
2020/12/10 02:40:28;;;;;;;21.62;10.45;;;;;;;-6.29;69.59;100335.86;1684775;84;21614;-61
2020/12/10 02:42:59;;;;;;;20.70;10.38;;;;;;;-6.32;69.72;100340.14;1687090;84;21157;-61
2020/12/10 02:45:27;;;;;;;18.77;9.65;;;;;;;-6.32;69.78;100337.98;1705835;83;21165;-61
2020/12/10 02:47:55;;;;;;;19.62;9.63;;;;;;;-6.35;69.80;100337.79;1697870;82;21174;-61
2020/12/10 02:50:23;;;;;;;17.92;8.73;;;;;;;-6.35;69.82;100331.66;1659899;86;21328;-60
2020/12/10 02:52:50;;;;;;;21.52;9.73;;;;;;;-6.34;69.75;100338.63;1619533;86;21396;-61
2020/12/10 02:55:18;;;;;;;21.48;9.95;;;;;;;-6.40;69.87;100341.36;1660009;84;21153;-61
2020/12/10 02:57:47;;;;;;;21.30;10.45;;;;;;;-6.39;69.93;100335.58;1665029;84;21430;-61
2020/12/10 03:00:15;;;;;;;19.65;9.45;;;;;;;-6.36;69.89;100333.95;1691833;84;21139;-60
2020/12/10 03:02:43;;;;;;;18.90;9.30;;;;;;;-6.40;69.98;100332.58;1686553;84;21194;-60
2020/12/10 03:05:11;;;;;;;23.80;9.45;;;;;;;-6.41;70.00;100337.55;1701216;84;21166;-61
2020/12/10 03:07:38;;;;;;;22.25;11.05;;;;;;;-6.41;70.00;100337.03;1637740;85;21581;-60
2020/12/10 03:10:07;;;;;;;21.35;8.60;;;;;;;-6.43;70.09;100336.86;1694002;83;21593;-61
2020/12/10 03:12:35;;;;;;;23.55;10.00;;;;;;;-6.36;69.91;100335.27;1644283;87;21211;-60
2020/12/10 03:15:03;;;;;;;22.87;9.98;;;;;;;-6.39;69.93;100335.09;1684733;85;21162;-61
2020/12/10 03:17:31;;;;;;;23.83;11.43;;;;;;;-6.37;69.92;100341.55;1613239;87;21180;-60
2020/12/10 03:19:59;;;;;;;22.00;9.65;;;;;;;-6.42;70.09;100345.16;1690921;83;21190;-61
2020/12/10 03:22:27;;;;;;;22.77;10.85;;;;;;;-6.39;70.20;100339.06;1643782;87;21221;-61
2020/12/10 03:24:55;;;;;;;23.40;10.78;;;;;;;-6.37;70.17;100332.27;1696601;84;21161;-61
2020/12/10 03:27:23;;;;;;;24.90;10.23;;;;;;;-6.36;70.26;100328.66;1672913;83;21141;-60
2020/12/10 03:29:51;;;;;;;22.80;11.20;;;;;;;-6.33;70.25;100331.84;1699051;83;21146;-61
2020/12/10 03:32:19;;;;;;;20.82;8.50;;;;;;;-6.30;70.28;100326.23;1698991;83;21164;-61
2020/12/10 03:34:47;;;;;;;24.07;10.30;;;;;;;-6.24;70.19;100316.38;1713136;83;21487;-60
2020/12/10 03:37:14;;;;;;;21.95;9.60;;;;;;;-6.25;70.21;100322.66;1699383;83;21227;-60
2020/12/10 03:39:42;;;;;;;21.35;10.80;;;;;;;-6.28;70.28;100316.34;1718429;83;21287;-60
2020/12/10 03:42:10;;;;;;;20.37;10.03;;;;;;;-6.24;70.28;100313.73;1700335;83;21227;-60
2020/12/10 03:44:38;;;;;;;21.25;8.95;;;;;;;-6.17;70.22;100307.34;1709114;83;22088;-60
2020/12/10 03:47:06;;;;;;;22.75;9.70;;;;;;;-6.18;70.09;100297.22;1616112;87;21651;-60
2020/12/10 03:49:34;;;;;;;19.05;8.88;;;;;;;-6.17;70.06;100296.73;1691599;83;21633;-61
2020/12/10 03:52:02;;;;;;;22.67;9.28;;;;;;;-6.14;70.00;100301.24;1666925;83;21676;-60
2020/12/10 03:54:29;;;;;;;24.45;10.68;;;;;;;-6.18;70.05;100296.39;1617382;87;21311;-61
2020/12/10 03:56:58;;;;;;;22.22;10.15;;;;;;;-6.15;70.11;100288.13;1697389;83;21176;-61
2020/12/10 03:59:25;;;;;;;19.35;9.33;;;;;;;-6.16;70.13;100289.94;1716660;83;21161;-61
2020/12/10 04:01:55;;;;;;;17.35;9.45;;;;;;;-6.20;70.09;100287.77;1709051;83;21173;-60
2020/12/10 04:04:23;;;;;;;18.90;8.65;;;;;;;-6.20;70.17;100286.44;1695281;83;21173;-60
2020/12/10 04:06:51;;;;;;;22.37;9.38;;;;;;;-6.18;70.10;100273.38;1613438;87;21361;-61
2020/12/10 04:09:19;;;;;;;22.95;10.10;;;;;;;-6.20;70.08;100259.94;1673024;85;21199;-60
2020/12/10 04:11:47;;;;;;;18.85;9.48;;;;;;;-6.24;70.37;100258.09;1699099;84;21170;-60
2020/12/10 04:14:15;;;;;;;20.92;10.30;;;;;;;-6.21;70.29;100255.62;1697502;83;21659;-61
2020/12/10 04:16:42;;;;;;;20.82;10.05;;;;;;;-6.22;70.32;100269.84;1687773;84;21171;-60
2020/12/10 04:19:10;;;;;;;17.67;9.30;;;;;;;-6.23;70.42;100265.52;1680909;84;21168;-61
2020/12/10 04:21:39;;;;;;;19.95;9.63;;;;;;;-6.26;70.61;100269.31;1667409;84;21180;-61
2020/12/10 04:24:06;;;;;;;21.77;9.58;;;;;;;-6.20;70.62;100279.30;1699682;84;21750;-60
2020/12/10 04:26:34;;;;;;;24.20;10.30;;;;;;;-6.20;70.61;100281.14;1669708;84;21171;-60
2020/12/10 04:29:02;;;;;;;19.50;8.98;;;;;;;-6.23;70.78;100281.42;1673382;84;21606;-60
2020/12/10 04:31:30;;;;;;;23.00;10.10;;;;;;;-6.21;70.82;100287.42;1669511;84;21663;-61
2020/12/10 04:33:59;;;;;;;21.42;9.95;;;;;;;-6.16;70.77;100278.50;1678434;84;21172;-60
2020/12/10 04:36:27;;;;;;;18.77;9.58;;;;;;;-6.19;70.84;100274.34;1661031;85;21140;-61
2020/12/10 04:38:55;;;;;;;20.15;10.13;;;;;;;-6.18;70.94;100273.86;1682024;84;21691;-60
2020/12/10 04:41:22;;;;;;;17.85;9.83;;;;;;;-6.12;70.93;100275.41;1686533;84;21192;-61
2020/12/10 04:43:53;;;;;;;20.92;10.28;;;;;;;-6.10;71.11;100271.29;1696531;84;21132;-60
2020/12/10 04:46:21;;;;;;;21.50;11.68;;;;;;;-6.06;70.99;100270.81;1685430;84;21194;-60
2020/12/10 04:48:49;;;;;;;24.23;11.48;;;;;;;-5.99;70.85;100272.39;1704162;84;21619;-61
2020/12/10 04:51:18;;;;;;;23.57;11.28;;;;;;;-6.00;70.97;100253.97;1706245;83;21182;-61
2020/12/10 04:53:46;;;;;;;21.45;9.63;;;;;;;-5.95;70.91;100260.46;1697348;84;21152;-61
2020/12/10 04:56:14;;;;;;;18.40;9.38;;;;;;;-5.90;71.00;100258.20;1659296;85;21596;-60
2020/12/10 04:58:42;;;;;;;19.82;10.32;;;;;;;-5.85;70.87;100250.59;1693956;84;21168;-60
2020/12/10 05:01:10;;;;;;;21.50;11.38;;;;;;;-5.79;70.81;100263.72;1696181;84;21679;-61
2020/12/10 05:03:38;;;;;;;25.48;12.78;;;;;;;-5.77;70.82;100256.42;1681472;84;21172;-60
2020/12/10 05:06:10;;;;;;;27.35;13.00;;;;;;;-5.76;70.93;100254.13;1658707;85;21208;-61
2020/12/10 05:08:38;;;;;;;29.20;12.58;;;;;;;-5.74;70.78;100258.27;1675751;84;21133;-61
2020/12/10 05:11:08;;;;;;;26.95;12.03;;;;;;;-5.68;70.84;100258.17;1665502;84;21175;-60
2020/12/10 05:13:38;;;;;;;20.92;11.70;;;;;;;-5.63;70.72;100257.19;1695023;84;21166;-60
2020/12/10 05:16:20;;;;;;;23.10;11.93;;;;;;;-5.61;70.61;100251.25;1717203;83;21159;-60
2020/12/10 05:18:48;;;;;;;21.17;10.15;;;;;;;-5.59;70.54;100259.38;1709590;83;21153;-60
2020/12/10 05:21:17;;;;;;;23.65;11.68;;;;;;;-5.53;70.55;100257.95;1711387;84;21126;-61
2020/12/10 05:23:45;;;;;;;24.40;11.80;;;;;;;-5.49;70.62;100262.45;1662848;85;21130;-61
2020/12/10 05:26:13;;;;;;;27.55;14.13;;;;;;;-5.51;70.63;100257.28;1684546;84;21153;-61
2020/12/10 05:28:49;;;;;;;35.70;15.38;;;;;;;-5.52;70.71;100265.73;1703005;84;21165;-61
2020/12/10 05:31:19;;;;;;;79.25;37.30;;;;;;;-5.52;70.89;100268.38;1696294;84;21275;-60
2020/12/10 05:34:00;;;;;;;63.17;25.32;;;;;;;-5.51;71.04;100274.52;1706404;83;21184;-60
2020/12/10 05:36:31;;;;;;;200.10;76.85;;;;;;;-5.47;71.01;100277.70;1683953;84;21652;-60
2020/12/10 05:39:07;;;;;;;105.43;48.38;;;;;;;-5.45;70.96;100267.26;1700138;84;21169;-61
2020/12/10 05:41:39;;;;;;;40.05;20.15;;;;;;;-5.47;71.17;100265.27;1694894;82;21133;-61
2020/12/10 05:44:16;;;;;;;53.13;29.02;;;;;;;-5.48;71.20;100262.76;1668016;84;21149;-60
2020/12/10 05:46:44;;;;;;;29.83;15.23;;;;;;;-5.45;71.20;100268.59;1681105;84;21955;-60
2020/12/10 05:49:12;;;;;;;22.48;12.30;;;;;;;-5.42;71.25;100268.79;1637276;84;21708;-61
2020/12/10 05:51:45;;;;;;;32.80;14.13;;;;;;;-5.42;71.27;100270.12;1689649;83;21902;-60
2020/12/10 05:54:15;;;;;;;35.95;16.17;;;;;;;-5.45;71.35;100261.95;1708001;84;21174;-60
2020/12/10 05:56:56;;;;;;;30.55;13.83;;;;;;;-5.40;71.28;100260.16;1695990;84;21703;-60
2020/12/10 05:59:26;;;;;;;31.85;14.43;;;;;;;-5.38;71.27;100263.48;1703504;84;21201;-62
2020/12/10 06:02:04;;;;;;;24.37;12.40;;;;;;;-5.40;71.39;100270.78;1701160;84;21613;-60
2020/12/10 06:04:38;;;;;;;30.62;13.95;;;;;;;-5.48;71.54;100242.38;1798449;79;23407;-61
2020/12/10 06:07:10;;;;;;;34.63;14.13;;;;;;;-5.42;71.76;100247.04;1757514;80;21185;-60
2020/12/10 06:09:38;;;;;;;28.60;14.50;;;;;;;-5.36;71.79;100249.58;1749892;81;21171;-60
2020/12/10 06:12:07;;;;;;;24.43;12.95;;;;;;;-5.34;71.79;100251.56;1765216;81;21191;-59
2020/12/10 06:14:55;;;;;;;24.52;12.93;;;;;;;-5.28;71.64;100246.45;1762627;81;21603;-60
2020/12/10 06:17:23;;;;;;;29.35;14.83;;;;;;;-5.23;71.74;100247.32;1747244;81;21187;-60
2020/12/10 06:19:51;;;;;;;40.58;17.27;;;;;;;-5.22;72.04;100241.86;1719148;82;21603;-60
2020/12/10 06:22:31;;;;;;;59.00;24.85;;;;;;;-5.21;72.22;100235.55;1760043;81;21157;-60
2020/12/10 06:25:03;;;;;;;32.10;15.23;;;;;;;-5.15;72.48;100242.89;1759728;81;21264;-60
2020/12/10 06:27:33;;;;;;;34.88;17.37;;;;;;;-5.12;72.91;100243.06;1772468;81;21186;-61
2020/12/10 06:30:17;;;;;;;36.90;18.75;;;;;;;-5.10;73.01;100247.73;1745924;82;21159;-60
2020/12/10 06:32:52;;;;;;;48.75;24.30;;;;;;;-5.05;73.06;100240.95;1755649;81;21731;-60
2020/12/10 06:35:35;;;;;;;75.97;34.30;;;;;;;-5.00;73.14;100239.15;1767925;81;21519;-60
2020/12/10 06:38:07;;;;;;;81.05;34.18;;;;;;;-4.95;73.31;100242.62;1744246;82;21215;-61
2020/12/10 06:40:39;;;;;;;68.90;27.50;;;;;;;-4.94;73.57;100235.84;1765993;81;21593;-60
2020/12/10 06:43:08;;;;;;;58.13;24.95;;;;;;;-4.87;73.61;100232.88;1746080;81;21177;-60
2020/12/10 06:45:40;;;;;;;46.77;20.12;;;;;;;-4.81;73.70;100220.27;1748771;81;21144;-61
2020/12/10 06:48:09;;;;;;;76.02;33.55;;;;;;;-4.74;73.68;100229.27;1769679;80;21609;-61
2020/12/10 06:50:40;;;;;;;141.70;64.77;;;;;;;-4.72;73.60;100221.14;1749935;81;21116;-62
2020/12/10 06:53:16;;;;;;;54.60;25.52;;;;;;;-4.71;73.63;100220.97;1761445;81;21169;-61
2020/12/10 06:58:45;;;;;;;59.90;24.92;;;;;;;-4.54;73.72;100231.99;1793105;79;22961;-61
2020/12/10 07:01:25;;;;;;;66.12;27.60;;;;;;;-4.53;73.68;100224.33;1754802;81;21593;-61
2020/12/10 07:07:21;;;;;;;60.00;26.37;;;;;;;-4.54;74.05;100234.65;1834164;77;22883;-60
2020/12/10 07:09:58;;;;;;;50.25;21.70;;;;;;;-4.60;73.95;100241.08;1843927;77;21543;-63
2020/12/10 07:12:35;;;;;;;89.58;33.80;;;;;;;-4.59;73.81;100230.30;1794262;80;21578;-62
2020/12/10 07:15:13;;;;;;;57.15;23.95;;;;;;;-4.53;73.85;100226.15;1816393;78;21551;-62
2020/12/10 07:17:49;;;;;;;72.53;31.85;;;;;;;-4.53;73.71;100228.31;1827863;77;21195;-62
2020/12/10 07:20:18;;;;;;;50.70;21.73;;;;;;;-4.54;73.71;100226.67;1809223;77;21117;-62
2020/12/10 07:22:46;;;;;;;70.15;29.23;;;;;;;-4.47;73.62;100229.51;1830817;77;21122;-62
2020/12/10 07:25:13;;;;;;;58.95;22.13;;;;;;;-4.48;73.73;100219.86;1820109;77;21310;-61
2020/12/10 07:27:45;;;;;;;47.88;21.62;;;;;;;-4.47;73.56;100213.56;1803814;77;21119;-61
2020/12/10 07:30:17;;;;;;;44.38;21.10;;;;;;;-4.49;73.40;100212.88;1813849;77;21609;-62
2020/12/10 07:32:46;;;;;;;35.03;16.40;;;;;;;-4.53;73.50;100214.19;1830299;77;21582;-59
2020/12/10 07:35:14;;;;;;;42.83;18.80;;;;;;;-4.56;73.60;100207.88;1805371;78;21627;-60
2020/12/10 07:37:44;;;;;;;35.00;16.77;;;;;;;-4.51;73.65;100212.22;1808670;77;21249;-60
2020/12/10 07:40:13;;;;;;;43.10;20.80;;;;;;;-4.52;73.48;100202.09;1818124;77;21177;-60
2020/12/10 07:42:43;;;;;;;33.38;16.70;;;;;;;-4.48;73.45;100205.25;1837148;77;21645;-62
2020/12/10 07:45:17;;;;;;;66.00;28.85;;;;;;;-4.46;73.47;100190.48;1822551;77;21154;-62
2020/12/10 07:47:58;;;;;;;37.48;16.23;;;;;;;-4.42;73.29;100218.36;1823438;77;21591;-64
2020/12/10 07:50:26;;;;;;;51.45;24.18;;;;;;;-4.42;73.24;100221.86;1842302;77;21137;-62
2020/12/10 07:52:54;;;;;;;36.38;17.92;;;;;;;-4.38;73.12;100213.89;1823058;77;21662;-61
2020/12/10 07:55:27;;;;;;;38.83;17.15;;;;;;;-4.33;72.89;100202.78;1837108;77;21591;-60
2020/12/10 07:58:14;;;;;;;37.20;19.07;;;;;;;-4.30;72.75;100202.44;1836558;77;21588;-60
2020/12/10 08:00:43;;;;;;;49.23;24.23;;;;;;;-4.34;72.77;100205.92;1850872;77;21833;-61
2020/12/10 08:03:26;;;;;;;40.15;19.00;;;;;;;-4.37;73.07;100208.08;1814628;77;21177;-60
2020/12/10 08:06:09;;;;;;;44.65;21.05;;;;;;;-4.31;73.05;100211.41;1811293;78;21100;-58
2020/12/10 08:08:42;;;;;;;44.27;19.50;;;;;;;-4.33;73.18;100218.72;1830440;77;21136;-59
2020/12/10 08:11:17;;;;;;;36.53;19.05;;;;;;;-4.24;72.98;100209.25;1745607;80;21145;-59
2020/12/10 08:14:03;;;;;;;50.58;21.12;;;;;;;-4.24;72.86;100196.45;1734051;81;21157;-59
2020/12/10 08:16:44;;;;;;;39.25;19.20;;;;;;;-4.20;72.71;100193.31;1770593;79;21673;-60
2020/12/10 08:19:28;;;;;;;43.15;21.15;;;;;;;-4.19;72.68;100184.84;1816836;77;21135;-59
2020/12/10 08:21:56;;;;;;;42.38;22.20;;;;;;;-4.20;72.62;100181.84;1813215;77;21204;-60
2020/12/10 08:24:44;;;;;;;50.52;24.05;;;;;;;-4.22;72.89;100176.70;1795903;77;21590;-60
2020/12/10 08:27:16;;;;;;;52.15;21.60;;;;;;;-4.27;73.06;100175.52;1824995;77;21169;-61
2020/12/10 08:30:08;;;;;;;45.48;20.85;;;;;;;-4.30;73.46;100184.67;1815881;77;21129;-60
2020/12/10 08:32:36;;;;;;;47.93;20.77;;;;;;;-4.34;73.50;100183.83;1830124;77;21599;-60
2020/12/10 08:35:07;;;;;;;51.77;24.45;;;;;;;-4.38;73.68;100178.02;1791282;77;21143;-59
2020/12/10 08:37:40;;;;;;;52.23;25.12;;;;;;;-4.37;73.69;100182.83;1837500;77;21589;-60
2020/12/10 08:40:08;;;;;;;55.85;27.75;;;;;;;-4.29;73.60;100181.52;1831987;77;21202;-61
2020/12/10 08:42:36;;;;;;;41.58;19.15;;;;;;;-4.26;73.35;100183.34;1838215;77;21141;-60
2020/12/10 08:45:04;;;;;;;40.33;19.37;;;;;;;-4.28;73.39;100187.98;1815094;77;21133;-60
2020/12/10 08:47:34;;;;;;;55.90;25.90;;;;;;;-4.30;73.42;100183.83;1841909;77;21609;-61
2020/12/10 08:53:06;;;;;;;54.90;25.50;;;;;;;-4.27;73.33;100180.84;1819732;77;21113;-59
2020/12/10 08:55:45;;;;;;;42.48;20.70;;;;;;;-4.21;72.91;100177.51;1802570;77;21137;-60
2020/12/10 08:58:23;;;;;;;58.87;27.02;;;;;;;-4.25;72.93;100181.52;1800142;79;21162;-60
2020/12/10 09:00:54;;;;;;;31.48;15.88;;;;;;;-4.28;73.16;100189.80;1817565;77;21157;-60
2020/12/10 09:03:23;;;;;;;34.65;19.25;;;;;;;-4.25;72.99;100195.62;1810114;77;21281;-62
2020/12/10 09:05:51;;;;;;;52.95;24.47;;;;;;;-4.27;72.84;100183.01;1807233;77;21303;-63
2020/12/10 09:08:19;;;;;;;41.25;19.05;;;;;;;-4.21;72.79;100174.36;1824572;77;21154;-61
2020/12/10 09:10:47;;;;;;;39.95;20.12;;;;;;;-4.19;72.76;100167.56;1804596;77;21129;-62
2020/12/10 09:13:15;;;;;;;38.08;18.90;;;;;;;-4.18;72.80;100175.34;1827380;77;21118;-62
2020/12/10 09:15:44;;;;;;;41.23;20.35;;;;;;;-4.21;72.65;100165.05;1834698;77;21208;-62
2020/12/10 09:18:12;;;;;;;47.05;21.82;;;;;;;-4.23;72.94;100161.75;1779557;80;21158;-61
2020/12/10 09:20:41;;;;;;;48.83;22.62;;;;;;;-4.19;72.82;100154.27;1746689;80;21439;-62
2020/12/10 09:23:11;;;;;;;43.25;19.17;;;;;;;-4.12;72.86;100149.94;1747376;80;21509;-64
2020/12/10 09:25:42;;;;;;;66.62;30.60;;;;;;;-4.15;73.07;100151.61;1752087;80;21641;-63
2020/12/10 09:28:10;;;;;;;46.35;23.20;;;;;;;-4.12;73.15;100152.59;1737635;82;21707;-65
2020/12/10 09:30:38;;;;;;;45.88;20.50;;;;;;;-4.07;72.99;100142.27;1733484;82;21207;-63
2020/12/10 09:33:07;;;;;;;65.37;29.40;;;;;;;-4.04;72.48;100141.44;1740747;82;21604;-61
2020/12/10 09:35:36;;;;;;;51.40;23.00;;;;;;;-4.00;72.18;100140.59;1797551;79;21285;-61
2020/12/10 09:38:04;;;;;;;96.95;43.00;;;;;;;-3.97;72.21;100150.93;1797898;79;21145;-62
2020/12/10 09:40:32;;;;;;;39.75;19.20;;;;;;;-3.95;72.22;100145.42;1738801;81;21111;-63
2020/12/10 09:43:00;;;;;;;42.73;20.65;;;;;;;-3.90;72.34;100149.25;1753184;81;21588;-63
2020/12/10 09:45:29;;;;;;;86.95;35.98;;;;;;;-3.89;72.27;100140.75;1768724;79;21123;-63
2020/12/10 09:47:58;;;;;;;64.15;29.52;;;;;;;-3.86;72.23;100139.11;1756110;80;21174;-63
2020/12/10 09:50:29;;;;;;;64.27;29.45;;;;;;;-3.80;72.19;100139.25;1706421;82;21171;-63
2020/12/10 09:53:01;;;;;;;34.60;17.82;;;;;;;-3.82;72.24;100140.41;1769601;80;21210;-64
2020/12/10 09:55:40;;;;;;;53.15;21.87;;;;;;;-3.86;72.06;100135.12;1716842;82;21153;-63
2020/12/10 09:57:55;;;;;;;41.25;20.20;;;;;;;-3.92;72.07;100135.28;1749557;80;21972;-63
2020/12/10 10:00:22;;;;;;;45.65;22.40;;;;;;;-3.92;72.17;100124.64;1733056;80;21165;-62
2020/12/10 10:02:50;;;;;;;69.25;32.67;;;;;;;-3.90;72.35;100135.13;1765519;80;21161;-64
2020/12/10 10:05:18;;;;;;;51.53;23.73;;;;;;;-3.87;72.33;100125.47;1764382;80;21196;-64
2020/12/10 10:07:46;;;;;;;61.05;26.75;;;;;;;-3.86;72.25;100127.14;1728647;80;21188;-63
2020/12/10 10:10:14;;;;;;;56.30;24.25;;;;;;;-3.93;72.61;100132.80;1751979;80;21181;-63
2020/12/10 10:12:42;;;;;;;40.73;20.43;;;;;;;-3.92;72.82;100143.26;1760671;80;21679;-63
2020/12/10 10:15:10;;;;;;;37.15;18.62;;;;;;;-3.93;72.98;100134.94;1737568;82;21179;-64
2020/12/10 10:17:38;;;;;;;40.30;18.30;;;;;;;-3.95;72.81;100134.78;1753839;80;21622;-63
2020/12/10 10:20:06;;;;;;;42.88;21.00;;;;;;;-4.04;73.02;100135.31;1766231;80;21188;-63
2020/12/10 10:22:40;;;;;;;42.65;19.52;;;;;;;-4.07;73.19;100132.47;1771592;79;21168;-61
2020/12/10 10:25:06;;;;;;;52.93;25.70;;;;;;;-4.02;73.16;100122.17;1756483;80;21119;-63
2020/12/10 10:27:34;;;;;;;39.70;20.15;;;;;;;-3.98;73.02;100118.67;1758314;80;21186;-63
2020/12/10 10:30:05;;;;;;;47.48;22.87;;;;;;;-3.97;72.95;100111.03;1758346;80;21712;-63
2020/12/10 10:32:34;;;;;;;41.05;21.17;;;;;;;-3.92;72.89;100109.17;1764454;80;21727;-63
2020/12/10 10:35:02;;;;;;;39.25;20.10;;;;;;;-3.87;72.71;100101.53;1756640;80;21161;-63
2020/12/10 10:37:30;;;;;;;46.53;24.00;;;;;;;-3.90;72.88;100104.53;1751740;80;21143;-63
2020/12/10 10:39:58;;;;;;;39.65;19.35;;;;;;;-3.84;72.69;100102.52;1752478;80;21654;-63
2020/12/10 10:42:26;;;;;;;39.60;18.87;;;;;;;-3.83;72.58;100102.36;1765198;80;21173;-63
2020/12/10 10:44:54;;;;;;;38.63;20.68;;;;;;;-3.77;72.50;100107.48;1762959;80;21150;-62
2020/12/10 10:47:22;;;;;;;44.50;20.57;;;;;;;-3.72;72.27;100111.28;1764137;80;21206;-63
2020/12/10 10:49:51;;;;;;;41.55;20.82;;;;;;;-3.69;72.22;100110.96;1762348;80;21165;-63
2020/12/10 10:52:19;;;;;;;40.73;21.52;;;;;;;-3.64;71.99;100111.75;1729492;82;21160;-63
2020/12/10 10:54:46;;;;;;;43.35;21.35;;;;;;;-3.67;71.93;100103.62;1749723;80;21139;-63
2020/12/10 10:57:14;;;;;;;39.98;20.52;;;;;;;-3.72;72.00;100113.94;1723520;82;21157;-63
2020/12/10 10:59:42;;;;;;;36.10;18.30;;;;;;;-3.84;72.02;100092.70;1749174;81;21143;-63
2020/12/10 11:02:10;;;;;;;36.73;18.23;;;;;;;-3.75;72.30;100110.30;1759128;80;21163;-66
2020/12/10 11:04:38;;;;;;;41.92;21.87;;;;;;;-3.73;72.34;100110.97;1770417;80;21160;-64
2020/12/10 11:07:06;;;;;;;44.35;21.57;;;;;;;-3.73;72.36;100112.80;1732985;81;21203;-63
2020/12/10 11:09:35;;;;;;;41.15;18.05;;;;;;;-3.67;72.36;100114.77;1818375;77;21150;-65
2020/12/10 11:12:03;;;;;;;39.90;18.73;;;;;;;-3.76;72.32;100109.98;1834104;77;21175;-64
2020/12/10 11:14:31;;;;;;;39.48;18.62;;;;;;;-3.81;72.55;100108.82;1781076;77;21131;-63
2020/12/10 11:16:59;;;;;;;34.20;18.85;;;;;;;-3.85;72.79;100104.34;1812690;79;21545;-65
2020/12/10 11:19:28;;;;;;;36.93;19.23;;;;;;;-3.84;72.86;100102.02;1809707;77;21364;-62
2020/12/10 11:21:56;;;;;;;38.17;20.02;;;;;;;-3.80;72.81;100106.00;1824244;77;21154;-64
2020/12/10 11:25:15;;;;;;;43.35;20.60;;;;;;;-3.72;72.90;100091.32;1792235;79;23082;-65
2020/12/10 11:27:43;;;;;;;50.80;28.55;;;;;;;-3.71;72.78;100092.99;1767580;80;21145;-61
2020/12/10 11:30:11;;;;;;;42.58;21.25;;;;;;;-3.67;72.64;100092.98;1768850;80;21180;-64
2020/12/10 11:32:39;;;;;;;53.58;23.90;;;;;;;-3.68;72.74;100082.00;1781235;80;21320;-63